Pagina principale
METAR-TAF:

METAR-TAF

Aeroporti :

Aeroporto Internazionale Nnamdi Azikiwe

Abuja, Nigeria

latitudine: 9-00-24N, longitudine: 7-15-47E, altezza: 342 m

Osservazione

Il bollettino è stato emesso 27 minuti fa, alle 02:00 UTC
Vento 9 kt da est/nord-est
Temperature 27°C
Umidità 26%
Pressione 1012 hPa
Visibilità: 5000 m
foschia

METAR: DNAA 240200Z 07009KT 5000 HZ NSC 27/06 Q1012 TEMPO 3000

Ora: 03:27 (02:27 UTC)

Previsione

Il bollettino è stato emesso 3 ore e 27 minuti fa, alle 23:00 UTC
Previsione valida dal 24 alle 00 UTC al 25 alle 06 UTC
Vento 10 kt da est/nord-est
Visibilità: 5000 m
foschia
Temporaneamente
dal 24 alle 01 UTC al 24 alle 03 UTC
Visibilità: 3000 m
Probabilità 30%
dal 24 alle 03 UTC al 24 alle 10 UTC
Visibilità: 1500 m
Evoluzione graduale
dal 24 alle 10 UTC al 24 alle 13 UTC
Vento 6 kt da sud-est

TAF: DNAA 232300Z 2400/2506 07010KT 5000 HZ NSC TEMPO 2401/2403 3000 PROB30 2403/2410 1500 BECMG 2410/2413 14006KT

Osservazioni e previsioni meteorologiche di più di 4000 aeroporti (messaggi METAR e TAF).

Le stazioni disponibili sono rappresentate dai dischi gialli e rossi sulla carta.

Puntare il mouse per vedere il nome della stazione.

Clicca sopra per visualizzare le osservazioni e previsioni meteorologiche.

Per cambiare la mappa : fare clic sui pulsanti verdi con una croce nera per ingrandire, il pulsante verde con un trattino per diminuire, o sulla freccia verde per le mappe adiacenti.


METAR-TAF: